Time;durP1;ratioP1;P1;durP2;ratioP2;P2;SDS_P1;SDS_P2;PMS_P1;PMS_P2;Temp;Humidity;BMP_temperature;BMP_pressure;BME280_temperature;BME280_humidity;BME280_pressure;Samples;Min_cycle;Max_cycle;Signal;HPM_P1;HPM_P2
2021/09/11 00:02:07;;;;;;;4.00;3.13;;;21.30;99.90;;;;;;6156508;23;20414;-85
2021/09/11 00:04:34;;;;;;;3.87;2.80;;;21.30;99.90;;;;;;6156383;23;20906;-86
2021/09/11 00:07:02;;;;;;;2.70;2.50;;;21.20;99.90;;;;;;6130843;23;20410;-87
2021/09/11 00:09:30;;;;;;;3.93;3.00;;;21.00;99.90;;;;;;6131148;23;20415;-85
2021/09/11 00:11:57;;;;;;;3.10;2.80;;;20.80;99.90;;;;;;6130951;23;20419;-86
2021/09/11 00:14:25;;;;;;;2.93;2.63;;;20.90;99.90;;;;;;6156966;23;20797;-87
2021/09/11 00:16:51;;;;;;;2.90;2.70;;;20.90;99.90;;;;;;6130863;23;20417;-85
2021/09/11 00:19:21;;;;;;;2.90;2.70;;;20.90;99.90;;;;;;6153325;23;20435;-86
2021/09/11 00:22:05;;;;;;;3.53;2.73;;;20.80;99.90;;;;;;6133413;23;20430;-86
2021/09/11 00:24:31;;;;;;;3.90;3.10;;;20.70;99.90;;;;;;6131380;23;20747;-86
2021/09/11 00:26:58;;;;;;;2.83;2.63;;;20.80;99.90;;;;;;6157648;23;20471;-85
2021/09/11 00:29:25;;;;;;;3.83;3.23;;;20.80;99.90;;;;;;6109135;23;20395;-86
2021/09/11 00:31:52;;;;;;;2.83;2.63;;;20.70;99.90;;;;;;6136341;23;20478;-85
2021/09/11 00:34:19;;;;;;;5.33;3.47;;;20.70;99.90;;;;;;6135833;23;20449;-87
2021/09/11 00:36:48;;;;;;;4.63;2.70;;;20.70;99.90;;;;;;6136021;23;20419;-85
2021/09/11 00:39:16;;;;;;;3.43;3.13;;;20.60;99.90;;;;;;6153730;23;20437;-86
2021/09/11 00:41:42;;;;;;;3.10;2.90;;;20.80;99.90;;;;;;6135404;23;20411;-85
2021/09/11 00:44:09;;;;;;;4.60;2.93;;;20.80;99.90;;;;;;6130112;23;20417;-85
2021/09/11 00:46:37;;;;;;;4.03;3.23;;;20.90;99.90;;;;;;6157565;23;20434;-84
2021/09/11 00:49:04;;;;;;;5.23;3.33;;;20.90;99.90;;;;;;6161865;23;20419;-86
2021/09/11 00:51:35;;;;;;;3.77;3.37;;;21.00;99.90;;;;;;6123956;23;20394;-84
2021/09/11 00:54:04;;;;;;;2.83;2.63;;;21.10;99.90;;;;;;6146676;23;20446;-85
2021/09/11 00:56:33;;;;;;;5.43;2.80;;;20.90;99.90;;;;;;6138993;23;20989;-87
2021/09/11 00:59:03;;;;;;;5.27;2.80;;;20.80;99.90;;;;;;6157097;23;20521;-86
2021/09/11 01:01:30;;;;;;;3.10;2.80;;;20.70;99.90;;;;;;6160236;23;20406;-86
2021/09/11 01:03:58;;;;;;;3.63;3.33;;;20.70;99.90;;;;;;6131661;23;20937;-86
2021/09/11 01:06:26;;;;;;;3.33;3.10;;;21.00;99.90;;;;;;6160119;23;20490;-86
2021/09/11 01:08:53;;;;;;;3.87;2.80;;;21.10;99.90;;;;;;6159411;23;20921;-84
2021/09/11 01:11:24;;;;;;;5.50;3.13;;;21.10;99.90;;;;;;6138248;23;20415;-87
2021/09/11 01:13:53;;;;;;;5.03;3.17;;;21.10;99.90;;;;;;6143090;23;20434;-84
2021/09/11 01:16:19;;;;;;;3.33;3.03;;;21.00;99.90;;;;;;6150065;23;20430;-83
2021/09/11 01:18:48;;;;;;;4.13;3.60;;;20.90;99.90;;;;;;6124661;23;20419;-85
2021/09/11 01:21:15;;;;;;;2.77;2.57;;;20.80;99.90;;;;;;6126038;23;20413;-85
2021/09/11 01:23:43;;;;;;;3.03;2.73;;;20.70;99.90;;;;;;6125913;23;20429;-85
2021/09/11 01:26:14;;;;;;;2.93;2.67;;;20.70;99.90;;;;;;6125972;23;20469;-85
2021/09/11 01:28:41;;;;;;;3.40;3.10;;;20.90;99.90;;;;;;6152084;23;20395;-85
2021/09/11 01:31:08;;;;;;;3.80;3.50;;;21.10;99.90;;;;;;6151839;23;20497;-86
2021/09/11 01:33:39;;;;;;;3.67;3.37;;;21.00;99.90;;;;;;6128159;23;20415;-83
2021/09/11 01:36:06;;;;;;;3.70;3.40;;;20.80;99.90;;;;;;6129084;23;20434;-84
2021/09/11 01:38:39;;;;;;;5.40;3.77;;;21.00;99.90;;;;;;6153447;23;20446;-84
2021/09/11 01:41:14;;;;;;;3.33;3.13;;;20.90;99.90;;;;;;6123559;23;20413;-85
2021/09/11 01:43:44;;;;;;;4.83;3.40;;;21.10;99.90;;;;;;6132105;23;20438;-85
2021/09/11 01:46:26;;;;;;;5.00;3.80;;;21.10;99.90;;;;;;6129697;23;20431;-85
2021/09/11 01:49:01;;;;;;;4.07;3.67;;;21.00;99.90;;;;;;6129240;23;20438;-85
2021/09/11 01:51:29;;;;;;;3.93;3.53;;;20.80;99.90;;;;;;6153648;23;20403;-84
2021/09/11 01:53:57;;;;;;;4.13;3.47;;;20.90;99.90;;;;;;6154642;23;20425;-85
2021/09/11 01:56:24;;;;;;;4.70;3.70;;;20.80;99.90;;;;;;6155506;23;20454;-84
2021/09/11 01:58:51;;;;;;;6.20;3.93;;;20.70;99.90;;;;;;6128551;23;20415;-85
2021/09/11 02:01:18;;;;;;;3.47;3.17;;;20.60;99.90;;;;;;6151696;23;20395;-85
2021/09/11 02:03:45;;;;;;;3.93;3.60;;;20.50;99.90;;;;;;6148130;23;20478;-85
2021/09/11 02:06:12;;;;;;;4.30;3.23;;;20.50;99.90;;;;;;6121138;23;20515;-85
2021/09/11 02:08:38;;;;;;;4.03;3.73;;;20.40;99.90;;;;;;6121002;23;20609;-85
2021/09/11 02:11:05;;;;;;;3.60;3.30;;;20.30;99.90;;;;;;6121371;23;20417;-87
2021/09/11 02:13:32;;;;;;;4.33;3.73;;;20.30;99.90;;;;;;6121147;23;20562;-84
2021/09/11 02:16:01;;;;;;;6.40;4.57;;;20.30;99.90;;;;;;6148094;23;20437;-84
2021/09/11 02:18:28;;;;;;;3.90;3.67;;;20.30;99.90;;;;;;6119551;23;20784;-85
2021/09/11 02:20:55;;;;;;;4.80;4.40;;;20.30;99.90;;;;;;6120510;23;20532;-88
2021/09/11 02:23:22;;;;;;;3.60;3.30;;;20.20;99.90;;;;;;6146003;23;20431;-85
2021/09/11 02:25:51;;;;;;;4.23;3.80;;;20.20;99.90;;;;;;6122114;23;20920;-87
2021/09/11 02:28:18;;;;;;;4.60;3.93;;;20.30;99.90;;;;;;6146888;23;20406;-85
2021/09/11 02:30:44;;;;;;;4.67;3.77;;;20.30;99.90;;;;;;6121925;23;20422;-86
2021/09/11 02:33:16;;;;;;;5.43;4.33;;;20.30;99.90;;;;;;6121912;23;20522;-86
2021/09/11 02:35:43;;;;;;;4.73;3.90;;;20.40;99.90;;;;;;6122879;23;20446;-84
2021/09/11 02:38:10;;;;;;;4.37;4.07;;;20.50;99.90;;;;;;6121837;23;20984;-86
2021/09/11 02:40:37;;;;;;;5.20;4.80;;;20.50;99.90;;;;;;6150119;23;20452;-85
2021/09/11 02:43:05;;;;;;;7.03;5.47;;;20.50;99.90;;;;;;6148994;23;20413;-84
2021/09/11 02:45:40;;;;;;;5.47;5.07;;;20.40;99.90;;;;;;6147689;23;20465;-85
2021/09/11 02:48:13;;;;;;;6.47;5.87;;;20.40;99.90;;;;;;6150201;23;20406;-86
2021/09/11 02:50:44;;;;;;;7.60;6.90;;;20.30;99.90;;;;;;6124441;23;20474;-85
2021/09/11 02:53:35;;;;;;;7.53;6.93;;;20.30;99.90;;;;;;6149600;23;21081;-85
2021/09/11 02:56:05;;;;;;;8.13;7.53;;;20.40;99.90;;;;;;6149835;23;20473;-84
2021/09/11 02:58:37;;;;;;;7.97;7.27;;;20.40;99.90;;;;;;6124167;23;20489;-84
2021/09/11 03:01:08;;;;;;;10.60;8.00;;;20.60;99.90;;;;;;6123385;23;20966;-85
2021/09/11 03:03:49;;;;;;;9.00;8.20;;;20.60;99.90;;;;;;6148998;23;20403;-85
2021/09/11 03:06:16;;;;;;;9.17;8.27;;;20.50;99.90;;;;;;6126344;23;20496;-86
2021/09/11 03:08:45;;;;;;;8.23;7.53;;;20.60;99.90;;;;;;6161462;23;20449;-86
2021/09/11 03:11:14;;;;;;;8.03;7.10;;;20.60;99.90;;;;;;6123992;23;20422;-86
2021/09/11 03:13:42;;;;;;;8.73;7.67;;;20.60;99.90;;;;;;6128996;23;20426;-87
2021/09/11 03:16:09;;;;;;;9.13;8.23;;;20.80;99.90;;;;;;6146975;23;20439;-89
2021/09/11 03:18:40;;;;;;;8.63;7.93;;;21.10;99.90;;;;;;6148256;23;20431;-89
2021/09/11 03:21:07;;;;;;;8.50;7.80;;;21.00;99.90;;;;;;6149685;23;20561;-86
2021/09/11 03:23:33;;;;;;;8.90;8.10;;;21.20;99.90;;;;;;6148114;23;20482;-87
2021/09/11 03:26:03;;;;;;;10.03;9.10;;;21.20;99.90;;;;;;6131254;23;20431;-85
2021/09/11 03:28:33;;;;;;;9.90;9.10;;;21.10;99.90;;;;;;6153727;23;20421;-85
2021/09/11 03:31:00;;;;;;;9.73;8.83;;;20.80;99.90;;;;;;6153787;23;20450;-85
2021/09/11 03:33:29;;;;;;;9.13;8.33;;;20.60;99.90;;;;;;6153634;23;20418;-85
2021/09/11 03:36:01;;;;;;;8.40;7.60;;;20.50;99.90;;;;;;6127422;23;20465;-85
2021/09/11 03:38:35;;;;;;;9.70;8.73;;;20.40;99.90;;;;;;6128242;23;20399;-84
2021/09/11 03:41:05;;;;;;;9.20;8.37;;;20.30;99.90;;;;;;6126817;23;20453;-85
2021/09/11 03:43:38;;;;;;;9.17;8.37;;;20.50;99.90;;;;;;6124037;23;20415;-86
2021/09/11 03:46:25;;;;;;;9.70;8.80;;;20.60;99.90;;;;;;6122634;23;20430;-85
2021/09/11 03:49:15;;;;;;;12.43;9.20;;;20.50;99.90;;;;;;6149548;23;20417;-84
2021/09/11 03:51:50;;;;;;;10.60;9.70;;;20.50;99.90;;;;;;6144454;23;20498;-84
2021/09/11 03:54:20;;;;;;;10.80;9.80;;;20.40;99.90;;;;;;6123159;23;20922;-85
2021/09/11 03:56:55;;;;;;;11.47;10.40;;;20.40;99.90;;;;;;6123567;23;20905;-85
2021/09/11 03:59:22;;;;;;;11.50;10.10;;;20.40;99.90;;;;;;6148001;23;20411;-86
2021/09/11 04:01:48;;;;;;;10.80;9.73;;;20.40;99.90;;;;;;6148380;23;21226;-84
2021/09/11 04:04:19;;;;;;;11.37;10.27;;;20.40;99.90;;;;;;6146040;23;20434;-85
2021/09/11 04:06:46;;;;;;;11.03;9.83;;;20.40;99.90;;;;;;6164340;23;20443;-85
2021/09/11 04:09:24;;;;;;;10.87;9.90;;;20.40;99.90;;;;;;6125907;23;20415;-85
2021/09/11 04:11:55;;;;;;;10.50;9.03;;;20.30;99.90;;;;;;6125832;23;20442;-85
2021/09/11 04:14:27;;;;;;;7.93;7.23;;;20.20;99.90;;;;;;6124017;23;20411;-85
2021/09/11 04:17:03;;;;;;;9.47;8.27;;;20.20;99.90;;;;;;6125632;23;20428;-85
2021/09/11 04:19:33;;;;;;;8.27;7.47;;;20.20;99.90;;;;;;6150014;23;20415;-85
2021/09/11 04:22:03;;;;;;;7.97;7.17;;;20.10;99.90;;;;;;6135655;23;20406;-87
2021/09/11 04:24:32;;;;;;;10.40;7.67;;;20.10;99.90;;;;;;6130110;23;20439;-86
2021/09/11 04:27:01;;;;;;;8.20;7.50;;;20.10;99.90;;;;;;6128355;23;20411;-85
2021/09/11 04:29:45;;;;;;;6.87;6.23;;;20.10;99.90;;;;;;6150717;23;20390;-85
2021/09/11 04:32:13;;;;;;;8.03;6.33;;;20.10;99.90;;;;;;6125892;23;20532;-85
2021/09/11 04:34:40;;;;;;;8.63;7.07;;;20.10;99.90;;;;;;6150704;23;20766;-86
2021/09/11 04:37:10;;;;;;;8.47;6.83;;;20.20;99.90;;;;;;6153282;23;20744;-85
2021/09/11 04:40:00;;;;;;;7.90;6.93;;;20.20;99.90;;;;;;6136410;23;20442;-85
2021/09/11 04:42:32;;;;;;;8.17;6.20;;;20.10;99.90;;;;;;6136915;23;20418;-84
2021/09/11 04:45:11;;;;;;;7.37;6.10;;;20.10;99.90;;;;;;6142482;23;20430;-86
2021/09/11 04:47:41;;;;;;;7.10;5.70;;;20.10;99.90;;;;;;6154357;23;20410;-85
2021/09/11 04:50:11;;;;;;;7.80;5.90;;;20.00;99.90;;;;;;6154219;23;20427;-85
2021/09/11 04:52:51;;;;;;;5.93;5.33;;;20.00;99.90;;;;;;6128359;23;20501;-85
2021/09/11 04:55:19;;;;;;;7.00;6.30;;;20.00;99.90;;;;;;6151759;23;20443;-85
2021/09/11 04:57:49;;;;;;;8.23;5.10;;;20.00;99.90;;;;;;6124766;23;20421;-85
2021/09/11 05:00:18;;;;;;;8.23;5.47;;;20.00;99.90;;;;;;6125114;23;20443;-86
2021/09/11 05:02:46;;;;;;;6.50;5.90;;;20.00;99.90;;;;;;6126385;23;20407;-83
2021/09/11 05:05:18;;;;;;;6.43;5.83;;;20.00;99.90;;;;;;6128418;23;20493;-86
2021/09/11 05:07:45;;;;;;;6.30;5.70;;;20.00;99.90;;;;;;6126651;23;20411;-84
2021/09/11 05:10:14;;;;;;;6.77;6.07;;;20.00;99.90;;;;;;6132435;23;20426;-85
2021/09/11 05:12:40;;;;;;;6.37;5.20;;;20.00;99.90;;;;;;6157029;23;20410;-84
2021/09/11 05:15:08;;;;;;;6.03;5.43;;;20.00;99.90;;;;;;6129610;23;20498;-83
2021/09/11 05:17:34;;;;;;;5.37;4.80;;;20.00;99.90;;;;;;6131250;23;20421;-83
2021/09/11 05:20:02;;;;;;;5.70;4.40;;;20.00;99.90;;;;;;6131485;23;20453;-85
2021/09/11 05:22:29;;;;;;;4.50;4.10;;;19.90;99.90;;;;;;6157371;23;20707;-86
2021/09/11 05:24:58;;;;;;;6.50;4.57;;;19.90;99.90;;;;;;6134862;23;20431;-84
2021/09/11 05:27:31;;;;;;;6.17;4.07;;;19.90;99.90;;;;;;6152065;23;20411;-84
2021/09/11 05:30:07;;;;;;;5.50;4.70;;;19.90;99.90;;;;;;6151818;23;20996;-84
2021/09/11 05:32:52;;;;;;;7.07;4.50;;;20.00;99.90;;;;;;6153497;23;20945;-83
2021/09/11 05:35:32;;;;;;;4.80;4.40;;;19.90;99.90;;;;;;6161378;23;20421;-87
2021/09/11 05:38:01;;;;;;;4.90;4.10;;;19.90;99.90;;;;;;6142770;23;20546;-82
2021/09/11 05:40:30;;;;;;;8.67;4.23;;;19.90;99.90;;;;;;6164084;23;20829;-83
2021/09/11 05:42:59;;;;;;;5.70;3.73;;;19.90;99.90;;;;;;6121117;23;20410;-86
2021/09/11 05:45:31;;;;;;;5.60;4.30;;;19.80;99.90;;;;;;6120346;23;20489;-85
2021/09/11 05:47:57;;;;;;;6.70;4.70;;;19.90;99.90;;;;;;6120650;23;20439;-83
2021/09/11 05:50:29;;;;;;;4.63;3.80;;;19.90;99.90;;;;;;6122026;23;20415;-83
2021/09/11 05:52:56;;;;;;;5.87;3.77;;;19.90;99.90;;;;;;6147294;23;20403;-84
2021/09/11 05:55:24;;;;;;;4.40;4.00;;;19.90;99.90;;;;;;6149580;23;20435;-83
2021/09/11 05:57:54;;;;;;;3.97;3.57;;;19.90;99.90;;;;;;6124633;23;20417;-84
2021/09/11 06:00:23;;;;;;;4.20;3.80;;;19.90;99.90;;;;;;6124773;23;20453;-84
2021/09/11 06:02:52;;;;;;;4.07;3.40;;;19.90;99.90;;;;;;6127288;23;20557;-84
2021/09/11 06:05:22;;;;;;;4.43;3.40;;;19.90;99.90;;;;;;6153013;23;20431;-84
2021/09/11 06:07:52;;;;;;;3.83;3.40;;;19.90;99.90;;;;;;6129472;23;20528;-83
2021/09/11 06:10:32;;;;;;;3.93;3.10;;;19.90;99.90;;;;;;6129869;23;20474;-84
2021/09/11 06:13:01;;;;;;;5.50;5.00;;;20.00;99.90;;;;;;6144771;23;20429;-87
2021/09/11 06:15:34;;;;;;;4.30;2.93;;;20.00;99.90;;;;;;6129719;23;20917;-83
2021/09/11 06:18:06;;;;;;;6.83;3.37;;;20.00;99.90;;;;;;6123961;23;20886;-82
2021/09/11 06:20:38;;;;;;;7.30;4.80;;;20.00;99.90;;;;;;6149460;23;20447;-83
2021/09/11 06:23:07;;;;;;;3.13;2.60;;;19.90;99.90;;;;;;6125965;23;20417;-86
2021/09/11 06:25:37;;;;;;;4.10;2.20;;;19.90;99.90;;;;;;6153709;23;20445;-85
2021/09/11 06:28:07;;;;;;;3.50;2.97;;;19.90;99.90;;;;;;6130983;23;20517;-85
2021/09/11 06:30:45;;;;;;;3.50;2.67;;;19.90;99.90;;;;;;6126416;23;20425;-85
2021/09/11 06:33:22;;;;;;;3.37;2.70;;;20.00;99.90;;;;;;6128881;23;20538;-87
2021/09/11 06:35:58;;;;;;;5.43;3.00;;;20.00;99.90;;;;;;6138134;23;20442;-83
2021/09/11 06:38:34;;;;;;;3.33;2.77;;;20.00;99.90;;;;;;6126490;23;20415;-85
2021/09/11 06:41:32;;;;;;;;;;;;;;;;;;;;;
2021/09/11 06:44:08;;;;;;;5.53;3.03;;;20.10;99.90;;;;;;6152465;23;20387;-86
2021/09/11 06:46:53;;;;;;;2.73;2.00;;;20.20;99.90;;;;;;6136410;23;20431;-87
2021/09/11 06:49:23;;;;;;;3.87;2.50;;;20.30;99.90;;;;;;6144921;23;20422;-85
2021/09/11 06:51:59;;;;;;;4.80;2.80;;;20.50;99.90;;;;;;6170437;23;20456;-86
2021/09/11 06:54:47;;;;;;;5.03;3.00;;;20.70;99.90;;;;;;6144457;23;20418;-85
2021/09/11 06:57:27;;;;;;;3.23;2.63;;;22.10;99.90;;;;;;6126847;23;20419;-85
2021/09/11 07:00:03;;;;;;;3.80;2.17;;;25.10;95.60;;;;;;6121538;23;20440;-85
2021/09/11 07:02:34;;;;;;;2.47;2.27;;;27.40;90.40;;;;;;6127408;23;20421;-85
2021/09/11 07:05:14;;;;;;;3.73;2.20;;;27.00;86.20;;;;;;6124782;23;20469;-86
2021/09/11 07:07:58;;;;;;;;;;;;;;;;;;;;;
2021/09/11 07:10:39;;;;;;;8.50;2.50;;;24.50;92.50;;;;;;6135209;23;20461;-85
2021/09/11 07:13:11;;;;;;;4.10;2.50;;;26.10;90.00;;;;;;6129390;23;20423;-85
2021/09/11 07:15:39;;;;;;;2.77;2.23;;;27.10;85.50;;;;;;6156764;23;20493;-84
2021/09/11 07:18:26;;;;;;;3.23;2.17;;;28.70;79.10;;;;;;6147689;23;20473;-84
2021/09/11 07:21:08;;;;;;;3.00;2.20;;;29.70;72.10;;;;;;6134913;23;20469;-86
2021/09/11 07:23:45;;;;;;;3.60;2.20;;;30.40;67.40;;;;;;6151258;23;20473;-86
2021/09/11 07:26:23;;;;;;;2.30;1.73;;;30.10;65.40;;;;;;6156753;23;21164;-86
2021/09/11 07:28:51;;;;;;;2.27;2.07;;;29.20;66.60;;;;;;6150645;23;20402;-85
2021/09/11 07:31:21;;;;;;;2.93;2.10;;;27.40;70.80;;;;;;6148080;23;20429;-85
2021/09/11 07:34:10;;;;;;;;;;;;;;;;;;;;;
2021/09/11 07:36:47;;;;;;;3.23;2.37;;;25.40;80.00;;;;;;6126572;23;20867;-85
2021/09/11 07:39:30;;;;;;;3.27;1.80;;;24.70;83.80;;;;;;6118550;23;20888;-84
2021/09/11 07:42:31;;;;;;;2.60;2.40;;;25.70;83.50;;;;;;6132026;23;20566;-84
2021/09/11 07:45:00;;;;;;;3.23;2.20;;;27.60;77.10;;;;;;6123130;23;20419;-84
2021/09/11 07:47:30;;;;;;;2.73;2.43;;;29.70;68.80;;;;;;6149721;23;20447;-88
2021/09/11 07:50:02;;;;;;;3.13;2.20;;;30.60;64.60;;;;;;6124456;23;20929;-85
2021/09/11 07:52:35;;;;;;;4.10;2.47;;;31.20;61.20;;;;;;6124248;23;20503;-84
2021/09/11 07:55:12;;;;;;;2.80;2.20;;;32.90;57.20;;;;;;6125100;23;20434;-88
2021/09/11 07:58:03;;;;;;;4.07;2.20;;;33.00;55.40;;;;;;6123133;23;20450;-83
2021/09/11 08:00:41;;;;;;;3.80;2.10;;;33.00;54.80;;;;;;6128684;23;20411;-85
2021/09/11 08:03:14;;;;;;;4.13;2.50;;;33.00;53.90;;;;;;6161581;23;20398;-87
2021/09/11 08:05:43;;;;;;;3.53;2.57;;;32.80;53.50;;;;;;6139496;23;20458;-84
2021/09/11 08:08:13;;;;;;;2.93;2.03;;;32.40;54.10;;;;;;6148611;23;20498;-85
2021/09/11 08:10:47;;;;;;;3.83;2.77;;;31.90;55.10;;;;;;6151497;23;20426;-84
2021/09/11 08:13:21;;;;;;;3.33;2.73;;;32.00;54.90;;;;;;6133771;23;20442;-84
2021/09/11 08:16:07;;;;;;;2.50;2.30;;;31.70;55.20;;;;;;6127334;23;20502;-87
2021/09/11 08:18:48;;;;;;;2.83;2.63;;;31.80;54.90;;;;;;6146800;23;20431;-84
2021/09/11 08:21:20;;;;;;;2.97;2.70;;;30.70;56.50;;;;;;6128306;23;20989;-86
2021/09/11 08:23:52;;;;;;;3.73;2.70;;;30.30;57.20;;;;;;6149351;23;20399;-85
2021/09/11 08:26:45;;;;;;;2.53;2.23;;;31.20;56.50;;;;;;6145983;23;20820;-84
2021/09/11 08:29:21;;;;;;;2.30;2.10;;;32.10;54.50;;;;;;6138611;23;20395;-87
2021/09/11 08:31:59;;;;;;;3.17;2.60;;;31.30;55.00;;;;;;6144444;23;20422;-84
2021/09/11 08:34:34;;;;;;;2.43;2.10;;;29.20;58.30;;;;;;6132725;23;20419;-86
2021/09/11 08:37:03;;;;;;;2.40;2.17;;;27.60;61.50;;;;;;6115022;23;20949;-84
2021/09/11 08:39:32;;;;;;;3.17;2.53;;;26.70;65.80;;;;;;6122460;23;20773;-83
2021/09/11 08:42:20;;;;;;;3.70;2.10;;;25.80;68.70;;;;;;6127430;23;21019;-85
2021/09/11 08:45:18;;;;;;;3.10;2.10;;;25.10;72.10;;;;;;6125348;23;20735;-85
2021/09/11 08:47:53;;;;;;;2.63;2.43;;;24.50;74.20;;;;;;6126288;23;20418;-85
2021/09/11 08:50:44;;;;;;;3.50;2.37;;;24.20;76.60;;;;;;6127527;23;20517;-84
2021/09/11 08:53:54;;;;;;;2.50;2.27;;;23.90;78.70;;;;;;6126742;23;20430;-85
2021/09/11 08:56:38;;;;;;;2.40;2.20;;;23.60;81.50;;;;;;6127586;23;20469;-85
2021/09/11 08:59:16;;;;;;;2.13;1.93;;;23.50;83.70;;;;;;6138498;23;20407;-87
2021/09/11 09:02:12;;;;;;;2.40;1.80;;;23.50;83.50;;;;;;6103408;23;20439;-87
2021/09/11 09:07:43;;;;;;;3.10;2.40;;;23.50;83.60;;;;;;6165670;23;20446;-85
2021/09/11 09:10:14;;;;;;;2.07;1.97;;;23.70;84.50;;;;;;6177637;23;20386;-83
2021/09/11 09:13:10;;;;;;;;;;;;;;;;;;;;;
2021/09/11 09:15:51;;;;;;;4.73;2.20;;;23.90;81.00;;;;;;6161571;23;20705;-84
2021/09/11 09:18:32;;;;;;;1.90;1.80;;;23.70;82.20;;;;;;6158323;23;20493;-84
2021/09/11 09:21:18;;;;;;;2.90;1.90;;;23.90;82.30;;;;;;6149949;23;20451;-85
2021/09/11 09:23:53;;;;;;;2.50;2.20;;;24.60;80.00;;;;;;6156234;23;21153;-84
2021/09/11 09:26:20;;;;;;;2.63;1.40;;;24.50;79.20;;;;;;6154972;23;20420;-87
2021/09/11 09:29:17;;;;;;;1.93;1.60;;;24.50;78.10;;;;;;6169994;23;20799;-84
2021/09/11 09:31:49;;;;;;;2.40;1.50;;;24.80;76.30;;;;;;6172314;23;20389;-86
2021/09/11 09:34:34;;;;;;;2.00;1.63;;;24.90;76.70;;;;;;6171029;23;20390;-84
2021/09/11 09:37:09;;;;;;;2.93;1.70;;;24.70;76.60;;;;;;6165168;23;20473;-84
2021/09/11 09:39:59;;;;;;;1.87;1.50;;;24.30;77.50;;;;;;6145545;23;20426;-83
2021/09/11 09:42:35;;;;;;;3.40;1.50;;;24.00;78.80;;;;;;6144650;23;20457;-82
2021/09/11 09:45:08;;;;;;;1.93;1.67;;;23.80;79.90;;;;;;6162301;23;20446;-87
2021/09/11 09:47:34;;;;;;;2.23;1.93;;;23.60;80.40;;;;;;6152636;23;20789;-84
2021/09/11 09:50:19;;;;;;;4.80;1.60;;;23.50;80.50;;;;;;6151220;23;20448;-82
2021/09/11 09:52:49;;;;;;;3.33;1.77;;;23.60;81.90;;;;;;6146849;23;20614;-84
2021/09/11 09:55:23;;;;;;;1.70;1.37;;;24.90;78.00;;;;;;6150309;23;20430;-84
2021/09/11 09:57:59;;;;;;;3.10;1.70;;;25.10;75.40;;;;;;6147626;23;20448;-85
2021/09/11 10:00:34;;;;;;;2.80;1.57;;;24.90;76.10;;;;;;6149382;23;20756;-84
2021/09/11 10:03:04;;;;;;;3.00;1.70;;;24.70;76.50;;;;;;6150193;23;20751;-85
2021/09/11 10:05:32;;;;;;;1.43;1.33;;;24.50;77.90;;;;;;6151734;23;20441;-87
2021/09/11 10:08:10;;;;;;;1.80;1.70;;;24.20;78.40;;;;;;6151184;23;20407;-83
2021/09/11 10:11:15;;;;;;;3.13;2.27;;;24.10;79.80;;;;;;6157263;23;20438;-87
2021/09/11 10:14:01;;;;;;;1.70;1.60;;;24.90;78.70;;;;;;6156219;23;20419;-86
2021/09/11 10:16:34;;;;;;;3.23;2.03;;;25.90;75.10;;;;;;6138848;23;20492;-88
2021/09/11 10:19:20;;;;;;;2.30;1.70;;;26.40;73.20;;;;;;6149828;23;20406;-85
2021/09/11 10:21:50;;;;;;;1.70;1.50;;;27.40;70.00;;;;;;6147972;23;20466;-85
2021/09/11 10:24:23;;;;;;;2.10;1.90;;;27.90;67.70;;;;;;6146556;23;20526;-87
2021/09/11 10:27:07;;;;;;;3.50;1.77;;;27.30;68.40;;;;;;6147109;23;20453;-85
2021/09/11 10:29:44;;;;;;;2.80;1.90;;;26.60;70.60;;;;;;6145872;23;20503;-85
2021/09/11 10:32:24;;;;;;;3.20;2.13;;;26.20;71.90;;;;;;6145791;23;20422;-85
2021/09/11 10:35:18;;;;;;;3.30;2.07;;;25.60;73.50;;;;;;6146843;23;20439;-84
2021/09/11 10:37:53;;;;;;;13.23;2.13;;;25.50;74.10;;;;;;6146225;23;20423;-83
2021/09/11 10:40:47;;;;;;;2.53;1.80;;;25.70;73.60;;;;;;6153432;23;20383;-86
2021/09/11 10:43:32;;;;;;;3.63;2.50;;;25.10;75.30;;;;;;6157085;23;20749;-84
2021/09/11 10:46:08;;;;;;;1.80;1.70;;;26.10;74.30;;;;;;6146626;23;20454;-85
2021/09/11 10:48:59;;;;;;;1.90;1.80;;;26.70;71.10;;;;;;6146680;23;20402;-84
2021/09/11 10:51:35;;;;;;;3.90;1.50;;;26.90;69.50;;;;;;6153190;23;20430;-84
2021/09/11 10:54:08;;;;;;;2.83;1.60;;;27.10;68.80;;;;;;6145294;23;20640;-84
2021/09/11 10:56:38;;;;;;;2.20;2.00;;;27.10;69.10;;;;;;6150861;23;20522;-84
2021/09/11 10:59:28;;;;;;;2.13;1.73;;;26.90;68.90;;;;;;6148278;23;20894;-85
2021/09/11 11:02:15;;;;;;;2.87;1.80;;;26.60;70.30;;;;;;6151366;23;20449;-84
2021/09/11 11:05:10;;;;;;;3.77;1.80;;;26.80;70.40;;;;;;6150176;23;20418;-85
2021/09/11 11:08:05;;;;;;;3.80;2.20;;;26.40;71.20;;;;;;6142234;23;20936;-86
2021/09/11 11:11:06;;;;;;;1.80;1.70;;;26.00;73.10;;;;;;6123638;23;20419;-82
2021/09/11 11:13:57;;;;;;;1.70;1.60;;;25.60;74.50;;;;;;6162538;23;20413;-86
2021/09/11 11:16:46;;;;;;;1.63;1.53;;;24.90;76.60;;;;;;6147231;23;20451;-84
2021/09/11 11:19:23;;;;;;;1.87;1.77;;;24.90;77.90;;;;;;6151840;23;20406;-83
2021/09/11 11:22:35;;;;;;;9.67;3.20;;;25.10;77.40;;;;;;6149975;23;20442;-84
2021/09/11 11:25:26;;;;;;;2.13;1.63;;;24.80;78.30;;;;;;6153465;23;20445;-87
2021/09/11 11:27:56;;;;;;;2.43;1.83;;;24.50;78.90;;;;;;6152134;23;20474;-85
2021/09/11 11:30:25;;;;;;;3.30;1.47;;;24.30;78.50;;;;;;6149562;23;20426;-86
2021/09/11 11:33:01;;;;;;;2.50;1.50;;;24.30;78.30;;;;;;6148112;23;20458;-85
2021/09/11 11:35:28;;;;;;;1.93;1.40;;;24.50;77.60;;;;;;6146315;23;20443;-84
2021/09/11 11:37:57;;;;;;;2.53;1.70;;;24.40;77.70;;;;;;6148419;23;20411;-84
2021/09/11 11:40:48;;;;;;;1.93;1.73;;;24.10;79.00;;;;;;6148274;23;20482;-85
2021/09/11 11:43:14;;;;;;;1.70;1.60;;;24.10;79.90;;;;;;6146178;23;20857;-85
2021/09/11 11:45:47;;;;;;;3.40;1.93;;;24.10;78.90;;;;;;6145584;23;20451;-88
2021/09/11 11:48:17;;;;;;;1.80;1.70;;;23.90;80.50;;;;;;6147084;23;20442;-84
2021/09/11 11:50:46;;;;;;;2.10;1.90;;;23.80;81.60;;;;;;6147089;23;20406;-85
2021/09/11 11:53:15;;;;;;;1.87;1.50;;;23.90;81.80;;;;;;6148072;23;20423;-85
2021/09/11 11:55:52;;;;;;;2.43;2.23;;;24.40;80.90;;;;;;6148644;23;20435;-85
2021/09/11 11:58:27;;;;;;;1.80;1.70;;;24.60;79.60;;;;;;6149560;23;20414;-85
2021/09/11 12:00:56;;;;;;;1.80;1.70;;;24.60;80.10;;;;;;6148978;23;20418;-85
2021/09/11 12:03:39;;;;;;;1.77;1.67;;;24.60;80.10;;;;;;6147314;23;20477;-85
2021/09/11 12:06:28;;;;;;;1.90;1.80;;;24.70;79.30;;;;;;6146826;23;20450;-85
2021/09/11 12:09:02;;;;;;;2.20;1.60;;;24.90;78.60;;;;;;6143110;23;20490;-83
2021/09/11 12:11:30;;;;;;;1.77;1.67;;;25.00;77.80;;;;;;6156797;23;20522;-86
2021/09/11 12:14:00;;;;;;;3.10;2.80;;;24.90;78.10;;;;;;6150994;23;20415;-85
2021/09/11 12:16:29;;;;;;;2.43;2.23;;;24.70;78.70;;;;;;6137898;23;20441;-85
2021/09/11 12:19:09;;;;;;;1.73;1.53;;;24.70;78.40;;;;;;6153465;23;20423;-83
2021/09/11 12:21:36;;;;;;;2.00;1.53;;;24.60;78.80;;;;;;6147970;23;20403;-87
2021/09/11 12:24:03;;;;;;;2.57;1.67;;;24.30;80.00;;;;;;6165923;23;20407;-86
2021/09/11 12:26:33;;;;;;;2.17;1.60;;;24.20;81.50;;;;;;6167737;23;20449;-87
2021/09/11 12:29:16;;;;;;;2.60;1.60;;;24.30;80.50;;;;;;6158281;23;20937;-86
2021/09/11 12:32:05;;;;;;;1.43;1.20;;;24.50;78.70;;;;;;6165549;23;20448;-87
2021/09/11 12:34:46;;;;;;;2.57;1.80;;;24.40;79.20;;;;;;6155846;23;20413;-87
2021/09/11 12:37:13;;;;;;;2.27;2.00;;;24.20;79.50;;;;;;6154824;23;20407;-87
2021/09/11 12:39:54;;;;;;;1.30;1.20;;;24.20;79.40;;;;;;6152415;23;20419;-87
2021/09/11 12:42:22;;;;;;;1.50;1.40;;;24.60;79.00;;;;;;6152729;23;20922;-88
2021/09/11 12:44:53;;;;;;;2.30;1.57;;;24.70;78.30;;;;;;6154917;23;20483;-87
2021/09/11 12:47:20;;;;;;;3.10;1.50;;;24.90;77.90;;;;;;6156375;23;21180;-86
2021/09/11 12:49:49;;;;;;;2.27;1.50;;;25.20;77.20;;;;;;6155636;23;20414;-85
2021/09/11 12:52:16;;;;;;;1.80;1.60;;;25.30;77.00;;;;;;6153371;23;20726;-88
2021/09/11 12:54:43;;;;;;;1.60;1.50;;;25.30;76.80;;;;;;6151696;23;20429;-88
2021/09/11 12:57:24;;;;;;;2.13;1.90;;;24.90;77.70;;;;;;6150306;23;20462;-85
2021/09/11 12:59:57;;;;;;;1.40;1.30;;;24.60;78.30;;;;;;6154976;23;20391;-87
2021/09/11 13:02:42;;;;;;;1.93;1.67;;;25.00;78.40;;;;;;6158744;23;20422;-89
2021/09/11 13:05:20;;;;;;;1.90;1.80;;;25.10;76.80;;;;;;6155800;23;20445;-86
2021/09/11 13:07:53;;;;;;;1.63;1.53;;;24.90;76.70;;;;;;6154818;23;20411;-87
2021/09/11 13:10:20;;;;;;;1.90;1.67;;;24.90;76.90;;;;;;6157544;23;20459;-86
2021/09/11 13:12:51;;;;;;;2.90;1.80;;;24.90;77.60;;;;;;6155494;23;20418;-89
2021/09/11 13:15:21;;;;;;;1.80;1.33;;;25.30;75.80;;;;;;6152655;23;20525;-86
2021/09/11 13:17:51;;;;;;;1.87;1.77;;;25.20;75.40;;;;;;6152635;23;20878;-86
2021/09/11 13:20:18;;;;;;;2.60;1.80;;;25.10;76.10;;;;;;6150368;23;20812;-86
2021/09/11 13:22:45;;;;;;;1.70;1.40;;;24.90;76.80;;;;;;6152943;23;20542;-85
2021/09/11 13:25:17;;;;;;;1.73;1.63;;;24.80;76.90;;;;;;6155052;23;20430;-86
2021/09/11 13:27:44;;;;;;;1.97;1.87;;;24.80;78.10;;;;;;6152958;23;20854;-86
2021/09/11 13:30:15;;;;;;;2.63;1.80;;;24.70;77.70;;;;;;6155059;23;20470;-86